createdAt,value
2023-08-23T04:02:34.248Z,88.85
2023-08-23T04:05:03.462Z,89.10
2023-08-23T04:07:30.054Z,89.01
2023-08-23T04:09:56.663Z,88.99
2023-08-23T04:12:23.844Z,89.06
2023-08-23T04:14:51.335Z,88.74
2023-08-23T04:17:17.959Z,88.60
2023-08-23T04:19:44.609Z,88.73
2023-08-23T04:22:11.205Z,88.28
2023-08-23T04:24:37.790Z,88.44
2023-08-23T04:27:05.313Z,88.19
2023-08-23T04:29:32.683Z,88.07
2023-08-23T04:31:59.563Z,87.66
2023-08-23T04:34:26.433Z,87.64
2023-08-23T04:36:53.724Z,87.75
2023-08-23T04:39:20.310Z,87.82
2023-08-23T04:41:46.891Z,87.92
2023-08-23T04:44:13.796Z,87.99
2023-08-23T04:46:40.412Z,87.94
2023-08-23T04:49:06.972Z,88.08
2023-08-23T04:51:33.521Z,88.06
2023-08-23T04:54:00.236Z,88.08
2023-08-23T04:56:27.032Z,88.01
2023-08-23T04:58:54.359Z,88.14
2023-08-23T05:01:21.045Z,88.12
2023-08-23T05:03:48.030Z,88.18
2023-08-23T05:06:14.586Z,88.01
2023-08-23T05:08:41.323Z,87.76
2023-08-23T05:11:08.498Z,87.60
2023-08-23T05:13:35.813Z,87.46
2023-08-23T05:16:02.485Z,87.40
2023-08-23T05:18:29.546Z,87.68
2023-08-23T05:20:58.704Z,87.73
2023-08-23T05:23:25.551Z,87.61
2023-08-23T05:25:53.784Z,87.66
2023-08-23T05:28:21.147Z,87.50
2023-08-23T05:30:48.886Z,87.35
2023-08-23T05:33:15.850Z,87.38
2023-08-23T05:35:44.061Z,87.24
2023-08-23T05:38:11.464Z,87.29
2023-08-23T05:40:39.052Z,87.17
2023-08-23T05:43:07.350Z,87.24
2023-08-23T05:45:34.466Z,87.44
2023-08-23T05:48:01.615Z,87.35
2023-08-23T05:50:29.018Z,87.15
2023-08-23T05:52:56.103Z,86.88
2023-08-23T05:55:23.198Z,86.74
2023-08-23T05:57:50.237Z,87.06
2023-08-23T06:00:17.467Z,87.50
2023-08-23T06:02:45.568Z,87.31
2023-08-23T06:05:13.019Z,87.28
2023-08-23T06:07:40.029Z,87.24
2023-08-23T06:10:07.544Z,87.18
2023-08-23T06:12:34.911Z,87.07
2023-08-23T06:15:01.842Z,87.11
2023-08-23T06:17:32.519Z,87.03
2023-08-23T06:19:59.178Z,86.67
2023-08-23T06:22:26.622Z,86.37
2023-08-23T06:24:53.985Z,86.12
2023-08-23T06:27:20.627Z,85.84
2023-08-23T06:29:47.281Z,85.20
2023-08-23T06:32:13.928Z,84.65
2023-08-23T06:34:41.010Z,84.04
2023-08-23T06:37:09.326Z,83.54
2023-08-23T06:39:36.014Z,83.04
2023-08-23T06:42:02.846Z,82.60
2023-08-23T06:44:31.184Z,82.11
2023-08-23T06:46:57.924Z,81.58
2023-08-23T06:49:24.538Z,80.95
2023-08-23T06:51:51.131Z,79.62
2023-08-23T06:54:17.733Z,79.31
2023-08-23T06:56:44.348Z,78.04
2023-08-23T06:59:11.075Z,76.90
2023-08-23T07:01:37.670Z,76.18
2023-08-23T07:04:04.544Z,76.30
2023-08-23T07:06:33.313Z,75.86
2023-08-23T07:09:00.201Z,75.81
2023-08-23T07:11:26.947Z,76.31
2023-08-23T07:13:53.540Z,76.54
2023-08-23T07:16:20.320Z,75.94
2023-08-23T07:18:46.939Z,75.04
2023-08-23T07:21:13.656Z,73.49
2023-08-23T07:23:41.928Z,73.35
2023-08-23T07:26:10.582Z,73.17
2023-08-23T07:28:38.282Z,73.19
2023-08-23T07:31:05.034Z,71.92
2023-08-23T07:33:31.766Z,71.84
2023-08-23T07:36:00.153Z,71.14
2023-08-23T07:38:27.827Z,71.19
2023-08-23T07:40:58.657Z,70.61
2023-08-23T07:43:25.881Z,69.81
2023-08-23T07:45:54.943Z,69.24
2023-08-23T07:48:23.728Z,67.99
2023-08-23T07:50:54.494Z,67.05
2023-08-23T07:53:21.058Z,66.63
2023-08-23T07:55:47.760Z,65.50
2023-08-23T07:58:15.289Z,66.11
2023-08-23T08:00:42.218Z,66.18
2023-08-23T08:03:10.478Z,65.42
2023-08-23T08:05:37.819Z,64.52
2023-08-23T08:08:08.534Z,63.40
2023-08-23T08:10:36.559Z,62.29
2023-08-23T08:13:03.958Z,62.26
2023-08-23T08:15:32.245Z,61.27
2023-08-23T08:17:58.881Z,60.13
2023-08-23T08:20:26.317Z,59.30
2023-08-23T08:22:53.647Z,59.29
2023-08-23T08:25:20.981Z,60.66
2023-08-23T08:27:48.353Z,59.92
2023-08-23T08:30:15.619Z,60.94
2023-08-23T08:32:42.477Z,59.13
2023-08-23T08:35:10.339Z,58.32
2023-08-23T08:37:38.055Z,56.02
2023-08-23T08:40:05.255Z,55.26
2023-08-23T08:42:32.834Z,54.38
2023-08-23T08:45:02.478Z,53.39
2023-08-23T08:47:29.715Z,53.63
2023-08-23T08:49:56.797Z,55.17
2023-08-23T08:52:26.472Z,54.44
2023-08-23T08:54:54.750Z,55.66
2023-08-23T08:57:24.144Z,55.20
2023-08-23T08:59:51.646Z,53.73
2023-08-23T09:02:20.013Z,52.84
2023-08-23T09:04:47.755Z,50.92
2023-08-23T09:07:15.250Z,51.00
2023-08-23T09:09:43.630Z,50.32
2023-08-23T09:12:11.236Z,49.06
2023-08-23T09:14:40.772Z,47.88
2023-08-23T09:17:09.213Z,47.88
2023-08-23T09:19:37.395Z,48.12
2023-08-23T09:22:06.044Z,47.74
2023-08-23T09:24:33.215Z,48.00
2023-08-23T09:27:00.019Z,49.51
2023-08-23T09:29:26.910Z,47.97
2023-08-23T09:31:53.545Z,46.51
2023-08-23T09:34:20.233Z,46.43
2023-08-23T09:36:48.219Z,45.99
2023-08-23T09:39:14.926Z,46.15
2023-08-23T09:41:59.244Z,46.42
2023-08-23T09:44:30.426Z,47.67
2023-08-23T09:47:01.314Z,46.30
2023-08-23T09:49:33.355Z,45.10
2023-08-23T09:52:02.525Z,46.60
2023-08-23T09:55:12.900Z,45.04
2023-08-23T09:57:43.280Z,46.34
2023-08-23T10:00:10.930Z,46.95
2023-08-23T10:02:38.517Z,46.78
2023-08-23T10:05:08.277Z,46.72
2023-08-23T10:07:37.024Z,46.27
2023-08-23T10:10:07.264Z,46.00
2023-08-23T10:12:38.077Z,45.21
2023-08-23T10:15:06.100Z,46.35
2023-08-23T10:17:34.199Z,45.49
2023-08-23T10:20:08.637Z,45.82
2023-08-23T10:22:36.523Z,45.37
2023-08-23T10:25:14.113Z,44.72
2023-08-23T10:27:40.697Z,45.36
2023-08-23T10:30:20.062Z,45.00
2023-08-23T10:32:47.986Z,44.20
2023-08-23T10:35:32.729Z,44.32
2023-08-23T10:37:59.612Z,44.48
2023-08-23T10:40:30.241Z,45.85
2023-08-23T10:42:57.410Z,44.29
2023-08-23T10:45:25.513Z,43.60
2023-08-23T10:47:53.066Z,44.01
2023-08-23T10:50:22.475Z,42.00
2023-08-23T10:52:52.209Z,40.90
2023-08-23T10:55:19.088Z,41.84
2023-08-23T10:57:46.420Z,42.17
2023-08-23T11:00:14.239Z,43.28
2023-08-23T11:02:41.022Z,42.44
2023-08-23T11:05:08.151Z,42.72
2023-08-23T11:07:36.217Z,42.51
2023-08-23T11:10:03.012Z,43.38
2023-08-23T11:12:29.919Z,43.11
2023-08-23T11:14:58.200Z,42.73
2023-08-23T11:17:24.869Z,43.55
2023-08-23T11:19:51.677Z,42.33
2023-08-23T11:22:18.820Z,41.90
2023-08-23T11:24:47.699Z,40.68
2023-08-23T11:27:14.785Z,41.27
2023-08-23T11:29:44.948Z,41.54
2023-08-23T11:32:14.555Z,41.77
2023-08-23T11:34:41.133Z,41.65
2023-08-23T11:37:09.002Z,43.06
2023-08-23T11:39:35.790Z,41.64
2023-08-23T11:42:02.475Z,40.77
2023-08-23T11:44:29.414Z,42.47
2023-08-23T11:46:58.329Z,41.24
2023-08-23T11:49:25.592Z,40.46
2023-08-23T11:51:53.288Z,39.88
2023-08-23T11:54:21.237Z,37.06
2023-08-23T11:56:47.847Z,40.99
2023-08-23T11:59:14.993Z,41.01
2023-08-23T12:01:45.611Z,39.98
2023-08-23T12:04:13.259Z,40.12
2023-08-23T12:06:43.819Z,41.38
2023-08-23T12:09:12.090Z,41.12
2023-08-23T12:11:39.846Z,39.95
2023-08-23T12:14:08.035Z,42.04
2023-08-23T12:16:35.869Z,40.81
2023-08-23T12:19:07.177Z,40.32
2023-08-23T12:21:41.287Z,39.71
2023-08-23T12:24:08.318Z,39.86
2023-08-23T12:26:35.176Z,42.11
2023-08-23T12:29:02.414Z,41.72
2023-08-23T12:31:29.266Z,40.12
2023-08-23T12:33:56.177Z,38.33
2023-08-23T12:36:23.413Z,38.14
2023-08-23T12:38:50.497Z,39.61
2023-08-23T12:41:17.341Z,41.64
2023-08-23T12:43:44.486Z,41.09
2023-08-23T12:46:11.496Z,39.03
2023-08-23T12:48:39.650Z,38.18
2023-08-23T12:51:06.583Z,38.88
2023-08-23T12:53:33.270Z,38.00
2023-08-23T12:55:59.950Z,37.62
2023-08-23T12:58:26.597Z,39.51
2023-08-23T13:00:53.512Z,40.08
2023-08-23T13:03:23.147Z,39.74
2023-08-23T13:05:49.882Z,37.81
2023-08-23T13:08:16.493Z,37.86
2023-08-23T13:10:43.314Z,38.34
2023-08-23T13:13:09.955Z,39.64
2023-08-23T13:15:36.957Z,38.16
2023-08-23T13:18:04.685Z,37.65
2023-08-23T13:20:31.348Z,38.16
2023-08-23T13:22:58.633Z,40.98
2023-08-23T13:25:25.755Z,41.41
2023-08-23T13:27:52.682Z,40.53
2023-08-23T13:30:19.454Z,41.38
2023-08-23T13:32:46.076Z,42.31
2023-08-23T13:35:13.845Z,41.39
2023-08-23T13:37:40.554Z,41.16
2023-08-23T13:40:10.001Z,41.18
2023-08-23T13:42:40.188Z,41.09
2023-08-23T13:45:09.357Z,40.20
2023-08-23T13:47:37.254Z,40.83
2023-08-23T13:50:05.966Z,41.59
2023-08-23T13:52:32.875Z,40.53
2023-08-23T13:55:00.207Z,42.26
2023-08-23T13:57:27.555Z,42.10
2023-08-23T13:59:54.100Z,41.35
2023-08-23T14:02:21.156Z,40.68
2023-08-23T14:04:47.786Z,40.97
2023-08-23T14:07:16.364Z,41.30
2023-08-23T14:09:43.257Z,41.07
2023-08-23T14:12:10.280Z,41.85
2023-08-23T14:14:37.442Z,41.63
2023-08-23T14:17:04.593Z,41.23
2023-08-23T14:19:32.907Z,40.72
2023-08-23T14:22:00.118Z,40.86
2023-08-23T14:24:28.293Z,39.82
2023-08-23T14:26:55.628Z,38.29
2023-08-23T14:29:22.944Z,39.51
2023-08-23T14:31:49.939Z,38.84
2023-08-23T14:34:16.991Z,40.09
2023-08-23T14:36:44.858Z,39.51
2023-08-23T14:39:14.339Z,40.18
2023-08-23T14:41:41.212Z,40.12
2023-08-23T14:44:07.925Z,40.59
2023-08-23T14:46:34.643Z,40.88
2023-08-23T14:49:01.294Z,41.79
2023-08-23T14:51:27.871Z,40.88
2023-08-23T14:53:55.288Z,41.51
2023-08-23T14:56:21.866Z,40.89
2023-08-23T14:58:48.543Z,40.70
2023-08-23T15:01:15.487Z,40.13
2023-08-23T15:03:42.580Z,41.09
2023-08-23T15:06:09.208Z,41.37
2023-08-23T15:08:36.535Z,41.60
2023-08-23T15:11:03.628Z,41.74
2023-08-23T15:13:31.316Z,42.16
2023-08-23T15:15:59.402Z,42.03
2023-08-23T15:18:29.949Z,42.55
2023-08-23T15:20:56.917Z,43.23
2023-08-23T15:23:23.941Z,42.57
2023-08-23T15:25:50.607Z,42.88
2023-08-23T15:28:17.186Z,42.85
2023-08-23T15:30:44.049Z,43.96
2023-08-23T15:33:10.764Z,44.45
2023-08-23T15:35:37.628Z,44.96
2023-08-23T15:38:04.480Z,44.07
2023-08-23T15:40:31.342Z,44.21
2023-08-23T15:42:58.173Z,43.90
2023-08-23T15:45:24.894Z,44.36
2023-08-23T15:47:53.933Z,45.13
2023-08-23T15:50:24.619Z,45.03
2023-08-23T15:52:51.337Z,44.85
2023-08-23T15:55:18.128Z,45.69
2023-08-23T15:57:45.242Z,46.56
2023-08-23T16:00:13.218Z,45.37
2023-08-23T16:02:40.186Z,45.53
2023-08-23T16:05:07.108Z,47.21
2023-08-23T16:07:33.927Z,46.92
2023-08-23T16:10:00.655Z,47.24
2023-08-23T16:12:27.276Z,47.11
2023-08-23T16:14:54.167Z,47.40
2023-08-23T16:17:21.093Z,47.93
2023-08-23T16:19:47.722Z,48.33
2023-08-23T16:22:14.338Z,48.28
2023-08-23T16:24:42.980Z,48.91
2023-08-23T16:27:09.551Z,49.56
2023-08-23T16:29:36.146Z,49.25
2023-08-23T16:32:02.858Z,50.19
2023-08-23T16:34:30.008Z,51.67
2023-08-23T16:36:56.773Z,52.16
2023-08-23T16:39:24.277Z,52.48
2023-08-23T16:41:53.403Z,51.53
2023-08-23T16:44:20.426Z,52.02
2023-08-23T16:46:51.633Z,51.87
2023-08-23T16:49:18.826Z,52.16
2023-08-23T16:51:45.464Z,54.26
2023-08-23T16:54:13.090Z,54.37
2023-08-23T16:56:39.724Z,54.36
2023-08-23T16:59:06.323Z,55.08
2023-08-23T17:01:33.398Z,55.64
2023-08-23T17:04:00.095Z,55.05
2023-08-23T17:06:27.625Z,55.90
2023-08-23T17:08:54.348Z,56.64
2023-08-23T17:11:21.270Z,57.33
2023-08-23T17:13:47.829Z,57.43
2023-08-23T17:16:14.609Z,57.64
2023-08-23T17:18:41.263Z,57.50
2023-08-23T17:21:08.230Z,57.99
2023-08-23T17:23:34.896Z,58.04
2023-08-23T17:26:01.872Z,58.58
2023-08-23T17:28:28.461Z,59.21
2023-08-23T17:30:55.098Z,58.88
2023-08-23T17:33:21.891Z,59.34
2023-08-23T17:35:48.703Z,59.46
2023-08-23T17:38:15.341Z,59.98
2023-08-23T17:40:41.974Z,60.15
2023-08-23T17:43:09.332Z,60.86
2023-08-23T17:45:39.355Z,60.92
2023-08-23T17:48:06.377Z,61.25
2023-08-23T17:50:33.036Z,61.58
2023-08-23T17:53:00.309Z,62.17
2023-08-23T17:55:26.985Z,62.27
2023-08-23T17:57:53.595Z,62.31
2023-08-23T18:00:21.312Z,62.56
2023-08-23T18:02:48.435Z,62.36
2023-08-23T18:05:15.495Z,62.53
2023-08-23T18:07:42.253Z,62.13
2023-08-23T18:10:09.750Z,63.45
2023-08-23T18:12:36.989Z,63.78
2023-08-23T18:15:04.394Z,64.26
2023-08-23T18:17:31.154Z,64.96
2023-08-23T18:19:58.898Z,64.70
2023-08-23T18:22:25.625Z,65.10
2023-08-23T18:24:52.279Z,64.60
2023-08-23T18:27:18.913Z,65.85
2023-08-23T18:29:45.588Z,65.69
2023-08-23T18:32:16.019Z,66.45
2023-08-23T18:34:42.658Z,67.46
2023-08-23T18:37:09.324Z,68.53
2023-08-23T18:39:36.759Z,68.43
2023-08-23T18:42:03.691Z,68.78
2023-08-23T18:44:32.076Z,69.31
2023-08-23T18:46:58.929Z,69.30
2023-08-23T18:49:25.521Z,69.81
2023-08-23T18:51:52.140Z,70.35
2023-08-23T18:54:18.750Z,70.68
2023-08-23T18:56:45.319Z,70.80
2023-08-23T18:59:13.162Z,70.43
2023-08-23T19:01:40.010Z,70.62
2023-08-23T19:04:06.715Z,70.66
2023-08-23T19:06:33.333Z,70.74
2023-08-23T19:09:00.283Z,71.20
2023-08-23T19:11:26.856Z,71.38
2023-08-23T19:13:53.458Z,71.11
2023-08-23T19:16:20.247Z,70.89
2023-08-23T19:18:47.061Z,71.01
2023-08-23T19:21:13.808Z,71.36
2023-08-23T19:23:40.475Z,71.78
2023-08-23T19:26:09.196Z,72.15
2023-08-23T19:28:35.853Z,71.87
2023-08-23T19:31:02.451Z,71.90
2023-08-23T19:33:29.422Z,71.93
2023-08-23T19:35:56.794Z,72.26
2023-08-23T19:38:23.553Z,72.50
2023-08-23T19:40:51.314Z,72.83
2023-08-23T19:43:18.042Z,73.16
2023-08-23T19:45:44.913Z,73.20
2023-08-23T19:48:30.976Z,73.44
2023-08-23T19:50:58.446Z,73.29
2023-08-23T19:53:25.079Z,73.44
2023-08-23T19:55:51.673Z,73.96
2023-08-23T19:58:19.924Z,74.20
2023-08-23T20:00:46.860Z,73.93
2023-08-23T20:03:13.647Z,73.91
2023-08-23T20:05:45.210Z,74.08
2023-08-23T20:08:12.624Z,73.91
2023-08-23T20:10:39.262Z,73.93
2023-08-23T20:13:06.249Z,73.87
2023-08-23T20:15:32.805Z,73.97
2023-08-23T20:17:59.474Z,73.88
2023-08-23T20:20:26.164Z,73.81
2023-08-23T20:22:52.829Z,73.93
2023-08-23T20:25:19.951Z,73.94
2023-08-23T20:27:46.594Z,74.11
2023-08-23T20:30:13.403Z,74.22
2023-08-23T20:32:40.082Z,73.95
2023-08-23T20:35:07.906Z,74.22
2023-08-23T20:37:34.941Z,74.25
2023-08-23T20:40:01.559Z,74.19
2023-08-23T20:42:28.197Z,74.33
2023-08-23T20:44:54.800Z,74.64
2023-08-23T20:47:21.384Z,74.53
2023-08-23T20:49:48.118Z,74.77
2023-08-23T20:52:14.728Z,74.67
2023-08-23T20:54:41.434Z,74.79
2023-08-23T20:57:08.117Z,74.69
2023-08-23T20:59:34.754Z,74.89
2023-08-23T21:02:01.403Z,75.10
2023-08-23T21:04:28.989Z,75.44
2023-08-23T21:06:55.601Z,75.56
2023-08-23T21:09:22.173Z,75.80
2023-08-23T21:11:48.769Z,75.69
2023-08-23T21:14:15.472Z,75.61
2023-08-23T21:16:42.119Z,75.74
2023-08-23T21:19:08.784Z,75.63
2023-08-23T21:21:35.405Z,75.25
2023-08-23T21:24:02.053Z,75.25
2023-08-23T21:26:30.301Z,75.38
2023-08-23T21:28:58.329Z,75.45
2023-08-23T21:31:24.995Z,75.59
2023-08-23T21:33:51.803Z,75.67
2023-08-23T21:36:19.089Z,75.67
2023-08-23T21:38:46.232Z,75.62
2023-08-23T21:41:13.380Z,75.98
2023-08-23T21:43:40.122Z,76.00
2023-08-23T21:46:06.917Z,76.01
2023-08-23T21:48:33.924Z,76.00
2023-08-23T21:51:00.672Z,76.25
2023-08-23T21:53:27.264Z,76.28
2023-08-23T21:55:56.182Z,76.44
2023-08-23T21:58:24.752Z,76.78
